Time;durP1;ratioP1;P1;durP2;ratioP2;P2;SDS_P1;SDS_P2;PMS_P1;PMS_P2;Temp;Humidity;BMP_temperature;BMP_pressure;BME280_temperature;BME280_humidity;BME280_pressure;Samples;Min_cycle;Max_cycle;Signal;HPM_P1;HPM_P2
2022/09/01 00:01:48;;;;;;;5.25;2.38;;;19.40;97.30;;;;;;5093098;27;20233;-58
2022/09/01 00:04:18;;;;;;;4.70;2.20;;;19.40;97.50;;;;;;5097736;28;20197;-61
2022/09/01 00:06:44;;;;;;;4.70;2.05;;;19.30;97.70;;;;;;5106621;28;20617;-60
2022/09/01 00:09:13;;;;;;;15.65;2.33;;;19.30;97.90;;;;;;5087811;28;20181;-61
2022/09/01 00:11:42;;;;;;;6.35;2.50;;;19.20;98.00;;;;;;5110303;28;20230;-59
2022/09/01 00:14:09;;;;;;;4.53;2.25;;;19.20;98.10;;;;;;5092290;28;20166;-60
2022/09/01 00:16:36;;;;;;;6.38;2.50;;;19.20;98.20;;;;;;5093091;28;20178;-60
2022/09/01 00:19:02;;;;;;;6.75;2.47;;;19.20;98.40;;;;;;5093710;28;20272;-60
2022/09/01 00:21:32;;;;;;;9.15;2.72;;;19.20;98.50;;;;;;5089929;28;20262;-60
2022/09/01 00:23:59;;;;;;;7.25;2.10;;;19.10;98.60;;;;;;5100355;28;20215;-59
2022/09/01 00:26:25;;;;;;;5.40;2.20;;;19.10;98.70;;;;;;5095765;28;20181;-59
2022/09/01 00:28:51;;;;;;;8.18;2.60;;;19.10;98.80;;;;;;5092321;28;20613;-59
2022/09/01 00:31:18;;;;;;;6.63;2.53;;;19.10;99.00;;;;;;5110245;28;20177;-60
2022/09/01 00:33:46;;;;;;;4.43;2.38;;;19.00;99.10;;;;;;5089622;28;20188;-59
2022/09/01 00:36:12;;;;;;;4.50;2.42;;;18.90;99.20;;;;;;5078241;28;20173;-61
2022/09/01 00:38:39;;;;;;;6.78;2.53;;;18.80;99.30;;;;;;5101704;28;20233;-60
2022/09/01 00:41:06;;;;;;;4.88;2.30;;;18.80;99.50;;;;;;5086536;28;20178;-64
2022/09/01 00:43:43;;;;;;;3.17;2.42;;;18.80;99.70;;;;;;5089800;28;20209;-61
2022/09/01 00:46:34;;;;;;;6.28;2.40;;;18.70;99.80;;;;;;5113587;28;20161;-61
2022/09/01 00:49:04;;;;;;;9.05;2.38;;;18.70;99.90;;;;;;5111258;28;20197;-60
2022/09/01 00:51:32;;;;;;;4.18;2.38;;;18.70;99.90;;;;;;5090258;28;20657;-66
2022/09/01 00:53:59;;;;;;;6.13;2.42;;;18.60;99.90;;;;;;5099745;28;20313;-61
2022/09/01 00:56:25;;;;;;;5.80;2.38;;;18.60;99.90;;;;;;5095726;28;20173;-61
2022/09/01 00:58:52;;;;;;;8.50;2.70;;;18.60;99.90;;;;;;5094511;28;20184;-61
2022/09/01 01:01:18;;;;;;;5.22;2.38;;;18.60;99.90;;;;;;5091744;28;20188;-65
2022/09/01 01:03:45;;;;;;;5.85;2.50;;;18.60;99.90;;;;;;5098843;28;20651;-62
2022/09/01 01:06:14;;;;;;;6.40;2.88;;;18.60;99.90;;;;;;5094805;28;20639;-61
2022/09/01 01:08:52;;;;;;;6.65;2.40;;;18.50;99.90;;;;;;5076910;28;20192;-64
2022/09/01 01:11:18;;;;;;;6.72;2.85;;;18.40;99.90;;;;;;5079805;28;20180;-61
2022/09/01 01:13:50;;;;;;;6.07;2.65;;;18.40;99.90;;;;;;5088898;28;20188;-60
2022/09/01 01:16:17;;;;;;;5.82;2.40;;;18.40;99.90;;;;;;5099646;28;20166;-61
2022/09/01 01:18:43;;;;;;;4.78;2.80;;;18.40;99.90;;;;;;5083883;28;20693;-62
2022/09/01 01:24:24;;;;;;;5.93;2.75;;;18.30;99.90;;;;;;5058996;28;20228;-64
2022/09/01 01:26:51;;;;;;;4.60;2.58;;;18.20;99.90;;;;;;5095874;28;20169;-62
2022/09/01 01:29:18;;;;;;;5.88;2.65;;;18.20;99.90;;;;;;5086286;28;20226;-60
2022/09/01 01:31:51;;;;;;;9.70;3.17;;;18.20;99.90;;;;;;5077811;28;20279;-59
2022/09/01 01:34:19;;;;;;;7.40;2.97;;;18.10;99.90;;;;;;5091261;28;20181;-59
2022/09/01 01:36:46;;;;;;;6.13;3.17;;;18.10;99.90;;;;;;5092913;28;20319;-59
2022/09/01 01:39:18;;;;;;;5.05;2.60;;;18.10;99.90;;;;;;5082345;28;20664;-59
2022/09/01 01:41:47;;;;;;;6.80;2.72;;;18.10;99.90;;;;;;5093124;28;20178;-59
2022/09/01 01:44:17;;;;;;;6.43;2.70;;;18.10;99.90;;;;;;5094824;28;20382;-63
2022/09/01 01:46:46;;;;;;;5.18;2.83;;;18.00;99.90;;;;;;5081707;28;20621;-58
2022/09/01 01:49:18;;;;;;;5.35;2.90;;;18.00;99.90;;;;;;5079398;28;20181;-61
2022/09/01 01:51:46;;;;;;;7.53;2.65;;;18.00;99.90;;;;;;5091430;28;20161;-63
2022/09/01 01:54:13;;;;;;;5.57;2.60;;;18.00;99.90;;;;;;5078322;28;20747;-62
2022/09/01 01:56:40;;;;;;;9.10;3.45;;;18.00;99.90;;;;;;5095515;28;20184;-62
2022/09/01 01:59:15;;;;;;;5.28;3.30;;;18.00;99.90;;;;;;5093242;28;20712;-62
2022/09/01 02:01:48;;;;;;;8.20;3.67;;;17.90;99.90;;;;;;5095687;28;20255;-63
2022/09/01 02:04:15;;;;;;;6.65;3.90;;;17.90;99.90;;;;;;5077104;28;20308;-62
2022/09/01 02:06:46;;;;;;;8.18;4.15;;;17.90;99.90;;;;;;5096653;27;20182;-62
2022/09/01 02:09:15;;;;;;;7.32;3.90;;;17.90;99.90;;;;;;5088017;28;20174;-63
2022/09/01 02:11:42;;;;;;;9.50;4.32;;;17.80;99.90;;;;;;5107533;28;20169;-63
2022/09/01 02:14:08;;;;;;;8.40;4.05;;;17.80;99.90;;;;;;5082409;28;20284;-62
2022/09/01 02:16:35;;;;;;;6.65;4.30;;;17.80;99.90;;;;;;5092737;28;20295;-63
2022/09/01 02:19:06;;;;;;;6.45;3.85;;;17.70;99.90;;;;;;5096648;28;20625;-62
2022/09/01 02:21:33;;;;;;;6.18;3.58;;;17.70;99.90;;;;;;5095821;28;20544;-62
2022/09/01 02:24:01;;;;;;;6.32;3.45;;;17.70;99.90;;;;;;5102662;28;20211;-62
2022/09/01 02:26:37;;;;;;;4.43;3.00;;;17.70;99.90;;;;;;5106643;27;20185;-63
2022/09/01 02:29:07;;;;;;;5.50;3.00;;;17.70;99.90;;;;;;5098983;28;20257;-62
2022/09/01 02:31:38;;;;;;;8.25;3.42;;;17.70;99.90;;;;;;5099347;28;20215;-63
2022/09/01 02:34:09;;;;;;;7.15;3.33;;;17.70;99.90;;;;;;5097033;28;20181;-63
2022/09/01 02:36:46;;;;;;;10.70;3.00;;;17.70;99.90;;;;;;5091297;28;20186;-63
2022/09/01 02:39:28;;;;;;;8.07;2.95;;;17.70;99.90;;;;;;5095472;28;20184;-62
2022/09/01 02:41:54;;;;;;;4.78;2.80;;;17.70;99.90;;;;;;5079388;28;20254;-62
2022/09/01 02:44:27;;;;;;;6.47;3.10;;;17.70;99.90;;;;;;5097589;28;20205;-62
2022/09/01 02:46:54;;;;;;;11.25;3.22;;;17.70;99.90;;;;;;5094550;28;20242;-61
2022/09/01 02:49:27;;;;;;;4.03;2.75;;;17.70;99.90;;;;;;5079637;28;20177;-63
2022/09/01 02:51:56;;;;;;;7.47;2.75;;;17.70;99.90;;;;;;5087519;28;20181;-62
2022/09/01 02:54:24;;;;;;;6.07;2.90;;;17.60;99.90;;;;;;5104487;28;20220;-62
2022/09/01 02:56:53;;;;;;;5.53;3.25;;;17.60;99.90;;;;;;5099109;28;20181;-63
2022/09/01 02:59:21;;;;;;;5.43;2.95;;;17.60;99.90;;;;;;5063441;27;20605;-63
2022/09/01 03:01:52;;;;;;;6.15;2.80;;;17.60;99.90;;;;;;5095824;28;20174;-63
2022/09/01 03:04:21;;;;;;;6.30;3.30;;;17.50;99.90;;;;;;5076913;28;20206;-63
2022/09/01 03:06:51;;;;;;;6.00;3.13;;;17.50;99.90;;;;;;5076334;28;20618;-63
2022/09/01 03:09:17;;;;;;;8.10;3.47;;;17.50;99.90;;;;;;5094478;28;20601;-62
2022/09/01 03:11:48;;;;;;;6.60;3.35;;;17.50;99.90;;;;;;5090494;27;20178;-61
2022/09/01 03:14:15;;;;;;;6.88;3.40;;;17.40;99.90;;;;;;5096730;28;20181;-61
2022/09/01 03:16:41;;;;;;;8.27;3.33;;;17.40;99.90;;;;;;5082465;27;20260;-62
2022/09/01 03:19:08;;;;;;;5.32;3.47;;;17.40;99.90;;;;;;5090574;28;20196;-62
2022/09/01 03:21:36;;;;;;;8.80;3.25;;;17.40;99.90;;;;;;5077786;28;20185;-61
2022/09/01 03:24:02;;;;;;;13.13;3.55;;;17.40;99.90;;;;;;5092036;28;20213;-61
2022/09/01 03:26:30;;;;;;;8.82;3.70;;;17.30;99.90;;;;;;5077137;28;20572;-61
2022/09/01 03:28:56;;;;;;;8.38;3.63;;;17.30;99.90;;;;;;5094798;28;20190;-61
2022/09/01 03:31:26;;;;;;;9.35;3.63;;;17.30;99.90;;;;;;5093969;28;20304;-61
2022/09/01 03:33:55;;;;;;;3.45;3.10;;;17.30;99.90;;;;;;5077026;28;20728;-62
2022/09/01 03:36:27;;;;;;;5.07;3.47;;;17.30;99.90;;;;;;5087803;28;20189;-61
2022/09/01 03:38:54;;;;;;;5.70;3.42;;;17.30;99.90;;;;;;5084185;28;20667;-61
2022/09/01 03:41:24;;;;;;;7.32;3.47;;;17.20;99.90;;;;;;5095617;28;20173;-61
2022/09/01 03:43:50;;;;;;;6.65;3.40;;;17.20;99.90;;;;;;5110764;28;20656;-62
2022/09/01 03:46:23;;;;;;;5.07;3.60;;;17.20;99.90;;;;;;5113569;28;20222;-61
2022/09/01 03:48:57;;;;;;;4.90;3.38;;;17.20;99.90;;;;;;5081165;28;20225;-62
2022/09/01 03:51:24;;;;;;;5.18;3.47;;;17.20;99.90;;;;;;5096492;28;20173;-61
2022/09/01 03:53:56;;;;;;;8.00;3.78;;;17.10;99.90;;;;;;5073819;28;21661;-62
2022/09/01 03:56:26;;;;;;;7.78;3.47;;;17.10;99.90;;;;;;5091561;28;20169;-61
2022/09/01 03:58:55;;;;;;;5.50;3.60;;;17.10;99.90;;;;;;5095894;28;20561;-62
2022/09/01 04:01:21;;;;;;;7.97;3.80;;;17.00;99.90;;;;;;5076304;28;20178;-61
2022/09/01 04:03:47;;;;;;;4.78;3.65;;;17.10;99.90;;;;;;5101194;28;20212;-62
2022/09/01 04:06:18;;;;;;;4.85;3.58;;;17.00;99.90;;;;;;5078391;28;20169;-62
2022/09/01 04:08:45;;;;;;;7.85;3.78;;;17.00;99.90;;;;;;5078664;28;20548;-63
2022/09/01 04:11:17;;;;;;;4.75;3.58;;;17.00;99.90;;;;;;5094452;28;20173;-62
2022/09/01 04:13:46;;;;;;;9.07;3.35;;;17.00;99.90;;;;;;5086076;28;20292;-61
2022/09/01 04:19:19;;;;;;;5.05;3.50;;;17.00;99.90;;;;;;5075715;28;20216;-61
2022/09/01 04:21:49;;;;;;;7.65;3.63;;;16.90;99.90;;;;;;5076016;28;20227;-60
2022/09/01 04:24:15;;;;;;;5.30;3.80;;;16.90;99.90;;;;;;5079704;28;20210;-61
2022/09/01 04:26:45;;;;;;;6.40;3.65;;;16.90;99.90;;;;;;5068002;28;20173;-62
2022/09/01 04:29:12;;;;;;;13.70;3.55;;;16.90;99.90;;;;;;5089135;28;20580;-61
2022/09/01 04:31:39;;;;;;;6.32;3.05;;;16.90;99.90;;;;;;5094547;28;20177;-63
2022/09/01 04:34:12;;;;;;;8.27;3.28;;;16.90;99.90;;;;;;5075627;28;21212;-63
2022/09/01 04:36:42;;;;;;;7.43;3.70;;;16.80;99.90;;;;;;5091122;28;20230;-63
2022/09/01 04:39:11;;;;;;;5.18;3.53;;;16.80;99.90;;;;;;5080379;28;20173;-64
2022/09/01 04:41:40;;;;;;;6.15;4.25;;;16.90;99.90;;;;;;5082854;28;20227;-63
2022/09/01 04:44:06;;;;;;;6.43;5.10;;;16.90;99.90;;;;;;5090062;28;20221;-63
2022/09/01 04:46:46;;;;;;;6.30;4.10;;;16.80;99.90;;;;;;5078349;28;20201;-63
2022/09/01 04:49:18;;;;;;;5.10;3.60;;;16.80;99.90;;;;;;5081166;28;20185;-60
2022/09/01 04:51:47;;;;;;;4.68;3.38;;;16.80;99.90;;;;;;5089544;28;20174;-60
2022/09/01 04:54:15;;;;;;;6.78;3.70;;;16.80;99.90;;;;;;5099643;28;20260;-61
2022/09/01 04:56:48;;;;;;;8.65;3.80;;;16.80;99.90;;;;;;5110962;28;20169;-59
2022/09/01 04:59:19;;;;;;;6.35;3.50;;;16.80;99.90;;;;;;5075006;28;20182;-58
2022/09/01 05:01:49;;;;;;;7.03;3.30;;;16.70;99.90;;;;;;5091233;28;20294;-60
2022/09/01 05:04:18;;;;;;;7.15;3.50;;;16.70;99.90;;;;;;5076561;28;20241;-62
2022/09/01 05:06:48;;;;;;;5.28;3.72;;;16.60;99.90;;;;;;5091695;28;20177;-62
2022/09/01 05:09:16;;;;;;;5.15;3.80;;;16.60;99.90;;;;;;5074991;28;21027;-62
2022/09/01 05:12:12;;;;;;;7.00;3.65;;;16.60;99.90;;;;;;5081501;28;20284;-60
2022/09/01 05:14:42;;;;;;;6.45;3.67;;;16.60;99.90;;;;;;5109947;28;20306;-63
2022/09/01 05:17:10;;;;;;;6.93;3.50;;;16.60;99.90;;;;;;5080967;28;20178;-63
2022/09/01 05:19:42;;;;;;;6.22;3.60;;;16.60;99.90;;;;;;5086141;28;20189;-63
2022/09/01 05:22:11;;;;;;;7.88;3.50;;;16.60;99.90;;;;;;5102527;28;20177;-63
2022/09/01 05:24:41;;;;;;;6.43;3.65;;;16.60;99.90;;;;;;5084129;28;20261;-63
2022/09/01 05:27:09;;;;;;;11.40;3.80;;;16.60;99.90;;;;;;5081735;28;20184;-61
2022/09/01 05:29:37;;;;;;;8.10;4.10;;;16.60;99.90;;;;;;5094334;28;20614;-62
2022/09/01 05:32:11;;;;;;;6.80;4.00;;;16.60;99.90;;;;;;5090541;28;22076;-61
2022/09/01 05:34:39;;;;;;;8.65;3.97;;;16.60;99.90;;;;;;5113150;28;20185;-61
2022/09/01 05:37:07;;;;;;;6.85;3.90;;;16.60;99.90;;;;;;5085522;28;20189;-63
2022/09/01 05:39:36;;;;;;;10.95;4.28;;;16.70;99.90;;;;;;5092108;28;20629;-62
2022/09/01 05:42:06;;;;;;;7.60;3.90;;;16.70;99.90;;;;;;5093803;28;20177;-64
2022/09/01 05:44:34;;;;;;;7.45;4.03;;;16.70;99.90;;;;;;5084267;28;20556;-63
2022/09/01 05:47:02;;;;;;;7.70;3.83;;;16.80;99.90;;;;;;5093968;28;20241;-63
2022/09/01 05:49:31;;;;;;;9.98;4.50;;;16.80;99.90;;;;;;5096773;27;20182;-64
2022/09/01 05:51:59;;;;;;;7.47;4.00;;;16.80;99.90;;;;;;5084476;28;20190;-66
2022/09/01 05:54:28;;;;;;;11.75;4.25;;;16.80;99.90;;;;;;5089170;28;20253;-63
2022/09/01 05:56:57;;;;;;;17.73;4.47;;;16.80;99.90;;;;;;5078719;27;20196;-61
2022/09/01 05:59:28;;;;;;;8.52;4.25;;;16.90;99.90;;;;;;5095471;28;20184;-64
2022/09/01 06:01:59;;;;;;;8.20;4.45;;;16.90;99.90;;;;;;5083354;28;20185;-62
2022/09/01 06:04:26;;;;;;;8.18;4.28;;;16.90;99.90;;;;;;5080464;28;20308;-62
2022/09/01 06:06:53;;;;;;;10.73;3.83;;;16.90;99.90;;;;;;5092213;28;20239;-61
2022/09/01 06:09:22;;;;;;;9.43;4.20;;;17.00;99.90;;;;;;5078490;28;20205;-62
2022/09/01 06:11:48;;;;;;;6.38;3.58;;;17.00;99.90;;;;;;5089712;28;20176;-63
2022/09/01 06:14:16;;;;;;;8.20;3.75;;;17.00;99.90;;;;;;5077970;28;20276;-65
2022/09/01 06:16:46;;;;;;;6.65;3.63;;;17.10;99.90;;;;;;5082884;28;20178;-63
2022/09/01 06:19:14;;;;;;;7.97;3.70;;;17.10;99.90;;;;;;5092825;28;20190;-63
2022/09/01 06:21:44;;;;;;;15.73;4.32;;;17.10;99.90;;;;;;5077497;28;20618;-63
2022/09/01 06:24:10;;;;;;;12.30;4.25;;;17.20;99.90;;;;;;5085394;28;20213;-64
2022/09/01 06:26:37;;;;;;;12.57;3.85;;;17.20;99.90;;;;;;5091486;28;20181;-66
2022/09/01 06:29:09;;;;;;;15.15;3.95;;;17.20;99.90;;;;;;5078148;28;20174;-66
2022/09/01 06:31:41;;;;;;;10.02;4.28;;;17.20;99.90;;;;;;5088736;28;20173;-65
2022/09/01 06:34:16;;;;;;;9.80;4.90;;;17.30;99.90;;;;;;5095839;28;20268;-66
2022/09/01 06:36:46;;;;;;;10.05;4.00;;;17.30;99.90;;;;;;5086202;28;21422;-65
2022/09/01 06:39:18;;;;;;;7.82;4.32;;;17.40;99.90;;;;;;5089882;28;20617;-65
2022/09/01 06:41:49;;;;;;;12.25;5.25;;;17.40;99.90;;;;;;5061537;28;20188;-66
2022/09/01 06:44:21;;;;;;;10.55;3.88;;;17.40;99.90;;;;;;5077664;28;20228;-63
2022/09/01 06:46:52;;;;;;;8.70;3.95;;;17.40;99.90;;;;;;5075835;28;20229;-63
2022/09/01 06:49:20;;;;;;;8.00;3.85;;;17.50;99.90;;;;;;5101406;28;20173;-64
2022/09/01 06:51:48;;;;;;;9.00;4.15;;;17.50;99.90;;;;;;5094499;27;20698;-63
2022/09/01 06:54:16;;;;;;;9.40;3.67;;;17.60;99.90;;;;;;5068966;28;20285;-64
2022/09/01 06:56:42;;;;;;;7.07;3.22;;;17.60;99.90;;;;;;5096196;28;20272;-67
2022/09/01 06:59:08;;;;;;;9.15;3.80;;;17.60;99.90;;;;;;5079879;27;20984;-67
2022/09/01 07:01:36;;;;;;;8.30;3.80;;;17.60;99.90;;;;;;5081435;28;20185;-63
2022/09/01 07:04:02;;;;;;;7.20;3.30;;;17.70;99.90;;;;;;5086025;28;20209;-64
2022/09/01 07:06:40;;;;;;;9.57;3.60;;;17.70;99.90;;;;;;5080215;28;20161;-63
2022/09/01 07:09:16;;;;;;;11.43;3.92;;;17.80;99.90;;;;;;5098316;28;20176;-63
2022/09/01 07:11:46;;;;;;;6.05;3.45;;;17.80;99.90;;;;;;5083191;28;20276;-61
2022/09/01 07:14:15;;;;;;;8.02;4.03;;;17.90;99.90;;;;;;5085449;28;20911;-64
2022/09/01 07:16:42;;;;;;;17.13;3.90;;;17.90;99.90;;;;;;5102921;27;20191;-63
2022/09/01 07:19:13;;;;;;;9.98;4.00;;;17.90;99.70;;;;;;5088922;28;20185;-63
2022/09/01 07:21:47;;;;;;;11.68;3.53;;;18.00;99.70;;;;;;5090352;28;20268;-64
2022/09/01 07:24:17;;;;;;;8.80;3.60;;;18.00;99.50;;;;;;5093013;28;20258;-62
2022/09/01 07:27:01;;;;;;;6.65;3.35;;;18.10;99.50;;;;;;5093939;28;20199;-63
2022/09/01 07:29:27;;;;;;;12.45;3.55;;;18.10;99.30;;;;;;5094475;28;20173;-63
2022/09/01 07:31:55;;;;;;;11.38;3.00;;;18.20;99.10;;;;;;5078783;28;20181;-63
2022/09/01 07:34:21;;;;;;;10.13;3.10;;;18.20;99.00;;;;;;5086976;28;20675;-62
2022/09/01 07:36:48;;;;;;;6.80;3.10;;;18.30;98.80;;;;;;5089019;28;20675;-62
2022/09/01 07:39:15;;;;;;;7.43;2.97;;;18.30;98.60;;;;;;5078476;28;20193;-60
2022/09/01 07:41:48;;;;;;;5.68;3.05;;;18.30;98.40;;;;;;5081431;28;20198;-60
2022/09/01 07:44:46;;;;;;;6.85;2.70;;;18.40;98.30;;;;;;5095073;28;20696;-62
2022/09/01 07:47:35;;;;;;;8.60;2.78;;;18.50;98.10;;;;;;5104986;28;20178;-62
2022/09/01 07:50:05;;;;;;;9.57;3.17;;;18.50;97.90;;;;;;5085092;28;20170;-62
2022/09/01 07:52:41;;;;;;;8.23;2.85;;;18.60;97.80;;;;;;5095971;28;20268;-63
2022/09/01 07:55:12;;;;;;;8.50;2.95;;;18.60;97.60;;;;;;5101455;28;20196;-62
2022/09/01 07:57:41;;;;;;;6.75;2.47;;;18.70;97.50;;;;;;5082910;28;20742;-62
2022/09/01 08:00:14;;;;;;;5.80;2.40;;;18.70;97.30;;;;;;5083742;28;20174;-62
2022/09/01 08:02:45;;;;;;;5.43;2.75;;;18.80;97.00;;;;;;5094647;27;20276;-63
2022/09/01 08:05:16;;;;;;;4.43;1.80;;;18.80;96.90;;;;;;5083471;28;20312;-61
2022/09/01 08:07:46;;;;;;;4.00;1.90;;;18.90;96.60;;;;;;5080082;28;20170;-62
2022/09/01 08:10:12;;;;;;;4.65;2.40;;;19.00;96.30;;;;;;5079381;28;20662;-62
2022/09/01 08:12:39;;;;;;;6.47;2.15;;;19.00;96.10;;;;;;5104809;28;20173;-62
2022/09/01 08:15:07;;;;;;;6.28;2.17;;;19.10;96.00;;;;;;5095668;28;20185;-62
2022/09/01 08:17:33;;;;;;;4.90;1.95;;;19.20;95.80;;;;;;5093830;28;20566;-61
2022/09/01 08:20:07;;;;;;;9.35;2.88;;;19.30;95.60;;;;;;5096010;28;20173;-61
2022/09/01 08:22:46;;;;;;;4.35;2.13;;;19.40;95.40;;;;;;5084696;27;20222;-62
2022/09/01 08:25:43;;;;;;;7.88;2.33;;;19.40;95.20;;;;;;5085270;27;20189;-61
2022/09/01 08:28:09;;;;;;;4.93;2.10;;;19.60;95.00;;;;;;5094990;27;20634;-61
2022/09/01 08:30:38;;;;;;;5.63;2.40;;;19.60;94.70;;;;;;5107875;28;20205;-62
2022/09/01 08:33:04;;;;;;;4.55;2.50;;;19.70;94.40;;;;;;5075649;28;20542;-62
2022/09/01 08:35:30;;;;;;;7.43;2.20;;;19.80;94.20;;;;;;5080023;28;20229;-61
2022/09/01 08:37:57;;;;;;;21.58;2.15;;;19.90;93.80;;;;;;5091939;28;20564;-62
2022/09/01 08:40:25;;;;;;;23.52;2.75;;;20.00;93.50;;;;;;5074092;28;20177;-61
2022/09/01 08:43:16;;;;;;;3.45;1.95;;;20.10;93.20;;;;;;5084727;28;20320;-61
2022/09/01 08:45:52;;;;;;;3.90;1.98;;;20.10;92.90;;;;;;5079974;28;20186;-61
2022/09/01 08:48:45;;;;;;;8.45;2.10;;;20.20;92.70;;;;;;5078301;28;20291;-61
2022/09/01 08:51:18;;;;;;;5.03;1.50;;;20.30;92.50;;;;;;5106087;28;20225;-61
2022/09/01 08:54:02;;;;;;;8.20;1.42;;;20.40;91.60;;;;;;5079913;28;20232;-61
2022/09/01 08:56:28;;;;;;;6.47;1.60;;;20.50;90.90;;;;;;5079174;28;20188;-61
2022/09/01 08:58:55;;;;;;;6.93;1.90;;;20.60;90.70;;;;;;5078526;28;20178;-62
2022/09/01 09:01:54;;;;;;;10.45;1.27;;;20.60;90.30;;;;;;5085926;28;20170;-62
2022/09/01 09:04:26;;;;;;;3.63;1.55;;;20.70;89.20;;;;;;5094054;28;20461;-62
2022/09/01 09:07:22;;;;;;;5.60;1.70;;;20.80;88.90;;;;;;5091767;28;20733;-62
2022/09/01 09:09:58;;;;;;;8.38;1.73;;;20.90;88.30;;;;;;5093685;27;20180;-62
2022/09/01 09:13:00;;;;;;;5.40;1.38;;;21.00;87.30;;;;;;5078405;28;20169;-61
2022/09/01 09:15:47;;;;;;;3.75;1.55;;;21.10;86.20;;;;;;5103617;27;20242;-62
2022/09/01 09:18:16;;;;;;;6.40;1.75;;;21.20;85.50;;;;;;5104121;27;20257;-62
2022/09/01 09:20:44;;;;;;;5.63;1.23;;;21.30;84.20;;;;;;5081026;27;20548;-62
2022/09/01 09:23:42;;;;;;;4.28;1.60;;;21.40;83.10;;;;;;5098535;27;20220;-63
2022/09/01 09:26:08;;;;;;;6.38;1.30;;;21.50;82.90;;;;;;5098524;27;20191;-62
2022/09/01 09:28:34;;;;;;;4.57;1.13;;;21.60;82.10;;;;;;5109432;27;20547;-63
2022/09/01 09:31:24;;;;;;;9.30;1.50;;;21.70;80.70;;;;;;5105847;27;20165;-62
2022/09/01 09:33:50;;;;;;;4.53;1.23;;;21.70;79.60;;;;;;5115546;27;20678;-63
2022/09/01 09:36:20;;;;;;;10.40;1.60;;;21.80;78.60;;;;;;5109750;27;20220;-65
2022/09/01 09:38:46;;;;;;;4.53;1.45;;;21.90;77.50;;;;;;5100618;27;20196;-62
2022/09/01 09:41:20;;;;;;;2.83;1.02;;;22.00;76.00;;;;;;5083393;27;20185;-62
2022/09/01 09:44:23;;;;;;;6.93;1.40;;;22.00;75.20;;;;;;5098402;27;20255;-62
2022/09/01 09:46:49;;;;;;;3.15;1.70;;;22.10;74.80;;;;;;5111096;27;20666;-61
2022/09/01 09:49:29;;;;;;;3.70;1.70;;;22.20;74.50;;;;;;5103445;27;20205;-61
2022/09/01 09:51:55;;;;;;;5.18;1.63;;;22.30;74.40;;;;;;5116123;27;20751;-61
2022/09/01 09:54:26;;;;;;;5.88;1.60;;;22.40;73.60;;;;;;5087103;28;20314;-61
2022/09/01 09:57:21;;;;;;;5.13;1.25;;;22.50;72.50;;;;;;5101927;27;20254;-61
2022/09/01 10:00:14;;;;;;;4.00;2.85;;;22.60;68.20;;;;;;5100735;27;20197;-61
2022/09/01 10:02:50;;;;;;;5.10;1.83;;;22.60;69.20;;;;;;5100507;27;20212;-62
2022/09/01 10:05:28;;;;;;;4.57;1.52;;;22.70;69.20;;;;;;5099176;28;20189;-62
2022/09/01 10:07:55;;;;;;;2.88;1.88;;;22.80;69.10;;;;;;5100417;27;20189;-62
2022/09/01 10:10:39;;;;;;;4.43;1.90;;;22.90;68.80;;;;;;5101022;27;20188;-63
2022/09/01 10:13:10;;;;;;;4.50;1.40;;;23.00;68.10;;;;;;5098638;27;20261;-63
2022/09/01 10:15:37;;;;;;;3.90;1.35;;;23.10;68.30;;;;;;5112294;27;20170;-63
2022/09/01 10:18:16;;;;;;;5.65;1.35;;;23.20;67.50;;;;;;5103004;27;20181;-63
2022/09/01 10:21:07;;;;;;;6.13;1.83;;;23.30;65.90;;;;;;5087534;28;20261;-63
2022/09/01 10:23:35;;;;;;;6.82;1.55;;;23.30;65.70;;;;;;5087488;28;20252;-63
2022/09/01 10:26:10;;;;;;;5.00;1.40;;;23.40;65.00;;;;;;5076489;28;20210;-63
2022/09/01 10:28:55;;;;;;;2.50;1.23;;;23.40;63.40;;;;;;5096940;28;20640;-62
2022/09/01 10:31:21;;;;;;;2.83;1.30;;;23.50;63.30;;;;;;5097146;28;20211;-63
2022/09/01 10:33:48;;;;;;;4.63;1.50;;;23.60;63.80;;;;;;5080986;28;20177;-63
2022/09/01 10:36:15;;;;;;;10.57;1.40;;;23.70;63.60;;;;;;5097377;28;20190;-62
2022/09/01 10:38:42;;;;;;;1.77;0.90;;;23.80;62.70;;;;;;5096343;28;20185;-62
2022/09/01 10:41:08;;;;;;;5.90;1.08;;;23.90;61.60;;;;;;5095269;28;20186;-62
2022/09/01 10:43:40;;;;;;;4.22;1.42;;;24.00;60.80;;;;;;5094382;28;20205;-62
2022/09/01 10:46:26;;;;;;;5.35;1.20;;;24.10;59.90;;;;;;5083646;28;20182;-62
2022/09/01 10:48:54;;;;;;;4.22;1.10;;;24.20;59.40;;;;;;5085155;27;20196;-63
2022/09/01 10:51:19;;;;;;;3.00;1.25;;;24.20;59.30;;;;;;5095657;28;20235;-62
2022/09/01 10:53:46;;;;;;;2.95;1.05;;;24.30;58.90;;;;;;5097519;27;20762;-63
2022/09/01 10:56:26;;;;;;;4.03;1.13;;;24.40;58.20;;;;;;5094767;28;20186;-62
2022/09/01 10:59:23;;;;;;;4.18;1.10;;;24.50;58.10;;;;;;5076830;28;20166;-62
2022/09/01 11:01:49;;;;;;;4.43;1.30;;;24.60;57.90;;;;;;5062060;28;20617;-62
2022/09/01 11:04:38;;;;;;;2.33;1.25;;;24.80;57.60;;;;;;5098441;27;20282;-63
2022/09/01 11:07:10;;;;;;;3.78;1.17;;;24.90;56.00;;;;;;5095285;28;20227;-63
2022/09/01 11:10:24;;;;;;;2.17;1.10;;;25.10;56.60;;;;;;5092907;28;20181;-63
2022/09/01 11:13:09;;;;;;;6.22;2.75;;;25.20;56.00;;;;;;5101715;28;20193;-63
2022/09/01 11:15:41;;;;;;;3.35;1.23;;;25.40;55.30;;;;;;5100006;28;20179;-63
2022/09/01 11:18:25;;;;;;;3.03;1.00;;;25.50;54.20;;;;;;5107936;28;20178;-63
2022/09/01 11:20:52;;;;;;;2.53;1.10;;;25.60;53.10;;;;;;5108636;28;20169;-63
2022/09/01 11:23:25;;;;;;;3.00;1.17;;;25.70;54.00;;;;;;5097852;28;20230;-63
2022/09/01 11:25:56;;;;;;;2.38;1.30;;;25.90;54.10;;;;;;5098831;28;20181;-63
2022/09/01 11:28:22;;;;;;;3.03;1.10;;;26.00;53.90;;;;;;5093677;28;20601;-61
2022/09/01 11:30:57;;;;;;;6.68;1.55;;;26.20;52.80;;;;;;5109902;28;20184;-60
2022/09/01 11:33:43;;;;;;;3.88;1.10;;;26.30;51.70;;;;;;5101924;28;20359;-62
2022/09/01 11:36:14;;;;;;;1.80;1.00;;;26.40;51.30;;;;;;5080409;28;20205;-62
2022/09/01 11:38:49;;;;;;;2.58;1.10;;;26.50;50.70;;;;;;5093885;28;20264;-61
2022/09/01 11:41:32;;;;;;;4.78;1.05;;;26.70;49.90;;;;;;5098498;28;20643;-62
2022/09/01 11:44:00;;;;;;;5.65;1.05;;;26.70;49.60;;;;;;5092425;28;20197;-61
2022/09/01 11:46:34;;;;;;;2.97;1.30;;;26.80;49.40;;;;;;5097828;28;20184;-61
2022/09/01 11:49:06;;;;;;;1.92;0.98;;;26.80;48.60;;;;;;5113395;28;20172;-61
2022/09/01 11:51:45;;;;;;;6.45;0.90;;;26.90;48.90;;;;;;5080426;28;20191;-61
2022/09/01 11:54:13;;;;;;;4.13;0.90;;;26.90;48.80;;;;;;5101155;28;20562;-61
2022/09/01 11:56:39;;;;;;;6.32;0.90;;;27.00;48.80;;;;;;5097973;28;20176;-63
2022/09/01 11:59:04;;;;;;;2.08;1.00;;;27.10;48.00;;;;;;5076788;28;20444;-64
2022/09/01 12:01:35;;;;;;;5.13;0.80;;;27.10;47.60;;;;;;5087126;28;20624;-60
2022/09/01 12:04:23;;;;;;;3.80;0.93;;;27.20;48.10;;;;;;5109419;28;20196;-60
2022/09/01 12:06:56;;;;;;;3.95;1.00;;;27.30;47.30;;;;;;5095196;28;20264;-62
2022/09/01 12:09:34;;;;;;;4.13;1.23;;;27.40;47.40;;;;;;5095771;28;20187;-60
2022/09/01 12:12:01;;;;;;;2.70;0.90;;;27.50;46.60;;;;;;5100799;28;20176;-60
2022/09/01 12:14:26;;;;;;;8.60;1.00;;;27.50;46.00;;;;;;5100661;28;20181;-63
2022/09/01 12:17:02;;;;;;;3.47;0.93;;;27.60;45.80;;;;;;5105958;28;20646;-60
2022/09/01 12:19:32;;;;;;;7.03;1.08;;;27.70;45.80;;;;;;5112188;28;20187;-59
2022/09/01 12:22:05;;;;;;;6.30;1.10;;;27.80;45.60;;;;;;5094326;28;20618;-61
2022/09/01 12:24:34;;;;;;;2.83;1.10;;;28.00;45.40;;;;;;5091512;28;20197;-62
2022/09/01 12:27:00;;;;;;;4.13;1.13;;;28.10;45.00;;;;;;5105651;28;20180;-59
2022/09/01 12:29:28;;;;;;;4.32;1.00;;;28.20;44.80;;;;;;5076898;28;20272;-59
2022/09/01 12:31:54;;;;;;;1.80;0.98;;;28.30;44.70;;;;;;5094200;27;20257;-59
2022/09/01 12:34:59;;;;;;;2.10;1.10;;;28.40;44.40;;;;;;5111098;27;20526;-59
2022/09/01 12:37:26;;;;;;;4.07;1.98;;;28.50;43.80;;;;;;5105057;28;20792;-60
2022/09/01 12:39:56;;;;;;;5.82;1.25;;;28.60;43.60;;;;;;5094127;28;20304;-61
2022/09/01 12:42:31;;;;;;;5.00;0.93;;;28.70;43.20;;;;;;5096179;28;20199;-61
2022/09/01 12:44:57;;;;;;;2.42;0.95;;;28.80;43.00;;;;;;5096133;28;20191;-61
2022/09/01 12:47:35;;;;;;;6.28;1.15;;;28.90;42.60;;;;;;5107664;28;20658;-59
2022/09/01 12:50:27;;;;;;;4.95;1.08;;;29.00;42.40;;;;;;5105149;28;20187;-60
2022/09/01 12:52:59;;;;;;;3.63;0.75;;;29.20;42.90;;;;;;5094519;28;20243;-60
2022/09/01 12:55:33;;;;;;;5.78;0.80;;;29.30;42.60;;;;;;5092328;28;20180;-63
2022/09/01 12:58:04;;;;;;;7.80;0.90;;;29.40;42.80;;;;;;5092587;28;20184;-61
2022/09/01 13:00:33;;;;;;;6.32;1.10;;;29.50;42.70;;;;;;5086169;28;20192;-60
2022/09/01 13:03:02;;;;;;;2.67;0.98;;;29.60;41.90;;;;;;5101125;28;20185;-64
2022/09/01 13:05:30;;;;;;;4.68;1.02;;;29.70;42.00;;;;;;5108583;28;20196;-59
2022/09/01 13:08:11;;;;;;;2.90;1.13;;;29.70;41.70;;;;;;5113186;28;20278;-60
2022/09/01 13:10:42;;;;;;;8.27;1.00;;;29.80;41.90;;;;;;5103720;28;20233;-60
2022/09/01 13:13:09;;;;;;;7.20;1.00;;;29.80;41.50;;;;;;5094296;28;20267;-60
2022/09/01 13:15:38;;;;;;;3.78;1.17;;;29.90;41.70;;;;;;5075031;28;20204;-59